Aviation Digital Data Service (ADDS)

Output produced by METARs form (1330 UTC 15 August 2018)
found at http://www.aviationweather.gov/adds/metars/
 
METAR text: LFLL 151300Z 36012KT 340V040 9999 FEW045 27/13 Q1019 NOSIG
Conditions at: LFLL (LYON/SATOLAS , FR) observed 1300 UTC 15 August 2018
Temperature: 27.0°C (81°F)
Dewpoint: 13.0°C (55°F) [RH = 42%]
Pressure (altimeter): 30.09 inches Hg (1019.0 mb)
Winds: from the N (360 degrees) at 14 MPH (12 knots; 6.2 m/s)
Visibility: 6 or more miles (10+ km)
Ceiling: at least 12,000 feet AGL
Clouds: few clouds at 4500 feet AGL
Weather: no significant weather observed at this time

Forecast for: LFLL (LYON/SATOLAS , FR)
Text: TAF LFLL 151100Z 1512/1618 36012KT CAVOK
Forecast period: 1200 to 1800 UTC 15 August 2018
Forecast type: FROM: standard forecast or significant change
Winds: from the N (360 degrees) at 14 MPH (12 knots; 6.2 m/s)
Visibility: 6 or more miles (10+ km)
Clouds: not forecast
Weather: NSW  (no significant weather)
Text: BECMG 1518/1520 VRB02KT
Forecast period: 1800 UTC 15 August 2018 to 1800 UTC 16 August 2018
Forecast type: BECOMING: Conditions expected to become as follows by 2000 UTC 15 August 2018
Winds: variable direction winds at 2 MPH (2 knots; 1.0 m/s)
Visibility: 6 or more miles (10+ km)
Weather: NSW  (no significant weather)